Sky Aurora — DSQN2 — position and weather

sailwx.info

Track history (hours):
 
Tides and Currents Weather Stations Pressure Air Temp Water Temp Dewpoint Dewpoint Depression Visibility Wind Speed Wind Dir Waves Ship Positions

Sky Aurora

Last reported at 2017-Nov-17 13:59 UTC. Time now 2017-Nov-22 20:38 UTC.
Position N 34°36' E 134°54'.

Length 102 m; draft 5.7 m.

Type: Cargo ship. MMSI: 441632000.

Date/timePositionNaut miles runAvg speedWind from/ knotsBaromVisibWave heightAir tempDewpointWater temp
2017-Nov-17 13:59N 34°36' E 134°54'7 9.8
2017-Nov-17 13:14N 34°36' E 135°03'2 9.4
2017-Nov-17 12:59N 34°34' E 135°05'611.8
2017-Nov-17 12:30N 34°29' E 135°03'1611.8
2017-Nov-17 11:09N 34°13' E 134°59'224 8.8
2017-Nov-16 09:47N 34°56' E 139°26'311.4
2017-Nov-16 09:30N 34°58' E 139°29'611.4
2017-Nov-16 09:00N 35°02' E 139°34'611.2
2017-Nov-16 08:30N 35°06' E 139°39'511.2
2017-Nov-16 08:00N 35°10' E 139°44'611.5
2017-Nov-16 07:30N 35°15' E 139°46'611.7
2017-Nov-16 07:00N 35°20' E 139°42'611.7
2017-Nov-16 06:30N 35°26' E 139°42'1 2.4
2017-Nov-16 05:53N 35°27' E 139°40'0 0.0
2017-Nov-16 05:23N 35°27' E 139°40'0 0.0
2017-Nov-16 04:59N 35°27' E 139°40'0 0.0
2017-Nov-16 04:28N 35°27' E 139°40'0 0.0
2017-Nov-16 04:00N 35°27' E 139°40'0 0.0
2017-Nov-16 03:30N 35°27' E 139°40'0 0.0
2017-Nov-16 02:58N 35°27' E 139°40'0 0.0
2017-Nov-16 02:28N 35°27' E 139°40'0 0.0
2017-Nov-16 01:55N 35°27' E 139°40'0 0.0
2017-Nov-16 01:26N 35°27' E 139°40'0 0.0
2017-Nov-16 00:59N 35°27' E 139°40'0 0.0
2017-Nov-16 00:29N 35°27' E 139°40'0 0.0
2017-Nov-16 00:00N 35°27' E 139°40'0 0.0
2017-Nov-15 23:29N 35°27' E 139°40'0 0.0
2017-Nov-15 22:59N 35°27' E 139°40'0 0.0
2017-Nov-15 22:25N 35°27' E 139°40'0 0.0
2017-Nov-15 22:00N 35°27' E 139°40'1 2.3
2017-Nov-15 21:30N 35°27' E 139°42'2 3.1
2017-Nov-15 21:00N 35°25' E 139°43'2 4.1
2017-Nov-15 20:30N 35°23' E 139°43'5 9.5
2017-Nov-15 20:00N 35°19' E 139°44'510.1
2017-Nov-15 19:30N 35°14' E 139°47'510.6
2017-Nov-15 19:00N 35°09' E 139°46'510.6
2017-Nov-15 18:30N 35°04' E 139°44'510.1
2017-Nov-15 18:00N 34°60' E 139°40'510.4
2017-Nov-15 17:30N 34°56' E 139°36'8 5.2
2017-Nov-15 15:58N 34°48' E 139°33'  
Track history (hours):
 
Tides and Currents Weather Stations Pressure Air Temp Water Temp Dewpoint Dewpoint Depression Visibility Wind Speed Wind Dir Waves Ship Positions

Sky Aurora

Last reported at 2017-Nov-17 13:59 UTC. Time now 2017-Nov-22 20:38 UTC.
Position N 34°36' E 134°54'.

Length 102 m; draft 5.7 m.

Type: Cargo ship. MMSI: 441632000.

Date/timePositionNaut miles runAvg speedWind from/ knotsBaromVisibWave heightAir tempDewpointWater temp
2017-Nov-17 13:59N 34°36' E 134°54'7 9.8
2017-Nov-17 13:14N 34°36' E 135°03'2 9.4
2017-Nov-17 12:59N 34°34' E 135°05'611.8
2017-Nov-17 12:30N 34°29' E 135°03'1611.8
2017-Nov-17 11:09N 34°13' E 134°59'224 8.8
2017-Nov-16 09:47N 34°56' E 139°26'311.4
2017-Nov-16 09:30N 34°58' E 139°29'611.4
2017-Nov-16 09:00N 35°02' E 139°34'611.2
2017-Nov-16 08:30N 35°06' E 139°39'511.2
2017-Nov-16 08:00N 35°10' E 139°44'611.5
2017-Nov-16 07:30N 35°15' E 139°46'611.7
2017-Nov-16 07:00N 35°20' E 139°42'611.7
2017-Nov-16 06:30N 35°26' E 139°42'1 2.4
2017-Nov-16 05:53N 35°27' E 139°40'0 0.0
2017-Nov-16 05:23N 35°27' E 139°40'0 0.0
2017-Nov-16 04:59N 35°27' E 139°40'0 0.0
2017-Nov-16 04:28N 35°27' E 139°40'0 0.0
2017-Nov-16 04:00N 35°27' E 139°40'0 0.0
2017-Nov-16 03:30N 35°27' E 139°40'0 0.0
2017-Nov-16 02:58N 35°27' E 139°40'0 0.0
2017-Nov-16 02:28N 35°27' E 139°40'0 0.0
2017-Nov-16 01:55N 35°27' E 139°40'0 0.0
2017-Nov-16 01:26N 35°27' E 139°40'0 0.0
2017-Nov-16 00:59N 35°27' E 139°40'0 0.0
2017-Nov-16 00:29N 35°27' E 139°40'0 0.0
2017-Nov-16 00:00N 35°27' E 139°40'0 0.0
2017-Nov-15 23:29N 35°27' E 139°40'0 0.0
2017-Nov-15 22:59N 35°27' E 139°40'0 0.0
2017-Nov-15 22:25N 35°27' E 139°40'0 0.0
2017-Nov-15 22:00N 35°27' E 139°40'1 2.3
2017-Nov-15 21:30N 35°27' E 139°42'2 3.1
2017-Nov-15 21:00N 35°25' E 139°43'2 4.1
2017-Nov-15 20:30N 35°23' E 139°43'5 9.5
2017-Nov-15 20:00N 35°19' E 139°44'510.1
2017-Nov-15 19:30N 35°14' E 139°47'510.6
2017-Nov-15 19:00N 35°09' E 139°46'510.6
2017-Nov-15 18:30N 35°04' E 139°44'510.1
2017-Nov-15 18:00N 34°60' E 139°40'510.4
2017-Nov-15 17:30N 34°56' E 139°36'8 5.2
2017-Nov-15 15:58N 34°48' E 139°33'  

Dump ship's entire track history